createdAt,value
2023-04-01T00:02:49.460Z,1.46
2023-04-01T00:07:54.750Z,1.44
2023-04-01T00:13:00.116Z,1.46
2023-04-01T00:18:06.731Z,1.41
2023-04-01T00:23:12.371Z,1.39
2023-04-01T00:28:19.872Z,1.24
2023-04-01T00:33:25.143Z,1.01
2023-04-01T00:38:30.640Z,1.19
2023-04-01T00:43:36.529Z,1.35
2023-04-01T00:48:54.281Z,1.35
2023-04-01T00:54:03.261Z,0.86
2023-04-01T00:59:18.017Z,0.81
2023-04-01T01:04:31.971Z,0.91
2023-04-01T01:10:19.607Z,0.98
2023-04-01T01:15:25.107Z,0.78
2023-04-01T01:21:02.184Z,0.96
2023-04-01T01:26:45.296Z,0.82
2023-04-01T01:32:24.881Z,0.47
2023-04-01T01:37:33.510Z,0.30
2023-04-01T01:42:46.419Z,0.38
2023-04-01T01:47:52.324Z,0.35
2023-04-01T01:53:06.881Z,0.25
2023-04-01T01:58:32.383Z,0.07
2023-04-01T02:03:41.193Z,0.09
2023-04-01T02:09:02.720Z,0.07
2023-04-01T02:14:19.465Z,0.26
2023-04-01T02:19:36.766Z,0.27
2023-04-01T02:24:43.855Z,0.21
2023-04-01T02:29:50.000Z,0.41
2023-04-01T02:34:56.123Z,0.55
2023-04-01T02:40:04.359Z,0.57
2023-04-01T02:45:11.311Z,0.38
2023-04-01T02:50:17.483Z,0.76
2023-04-01T02:55:23.096Z,1.41
2023-04-01T03:00:29.489Z,2.00
2023-04-01T03:05:34.922Z,1.85
2023-04-01T03:10:40.780Z,1.56
2023-04-01T03:15:46.906Z,1.85
2023-04-01T03:20:53.652Z,1.76
2023-04-01T03:25:59.118Z,2.01
2023-04-01T03:31:04.817Z,1.67
2023-04-01T03:36:20.752Z,1.67
2023-04-01T03:41:27.065Z,1.95
2023-04-01T03:46:32.658Z,2.73
2023-04-01T03:51:38.245Z,3.25
2023-04-01T03:56:43.535Z,3.88
2023-04-01T04:01:50.003Z,4.62
2023-04-01T04:06:56.288Z,5.07
2023-04-01T04:12:03.516Z,5.69
2023-04-01T04:17:17.233Z,6.01
2023-04-01T04:22:23.286Z,6.94
2023-04-01T04:27:28.828Z,7.19
2023-04-01T04:32:46.251Z,8.33
2023-04-01T04:37:51.904Z,8.73
2023-04-01T04:42:58.208Z,9.47
2023-04-01T04:48:04.108Z,9.85
2023-04-01T04:53:16.177Z,8.50
2023-04-01T04:58:21.832Z,8.58
2023-04-01T05:03:27.949Z,10.09
2023-04-01T05:08:34.387Z,10.75
2023-04-01T05:13:39.796Z,11.24
2023-04-01T05:18:45.886Z,11.50
2023-04-01T05:23:51.461Z,12.05
2023-04-01T05:28:57.102Z,12.19
2023-04-01T05:34:02.583Z,12.63
2023-04-01T05:39:07.823Z,13.04
2023-04-01T05:44:14.426Z,12.75
2023-04-01T05:49:18.654Z,12.45
2023-04-01T05:54:23.680Z,12.75
2023-04-01T05:59:28.774Z,13.69
2023-04-01T06:04:40.693Z,13.29
2023-04-01T06:09:47.677Z,12.78
2023-04-01T06:15:23.029Z,12.51
2023-04-01T06:20:39.413Z,12.02
2023-04-01T06:26:17.518Z,11.78
2023-04-01T06:31:45.104Z,11.72
2023-04-01T06:37:05.119Z,11.59
2023-04-01T06:42:31.145Z,11.31
2023-04-01T06:47:57.063Z,11.07
2023-04-01T06:53:26.997Z,11.32
2023-04-01T06:59:01.355Z,11.09
2023-04-01T07:04:36.955Z,11.48
2023-04-01T07:09:51.489Z,11.89
2023-04-01T07:15:45.673Z,12.26
2023-04-01T07:20:53.730Z,12.65
2023-04-01T07:26:12.919Z,12.73
2023-04-01T07:32:26.183Z,12.85
2023-04-01T07:37:47.800Z,12.85
2023-04-01T07:43:12.339Z,12.94
2023-04-01T07:48:46.307Z,12.96
2023-04-01T07:54:13.674Z,13.45
2023-04-01T08:00:03.016Z,13.85
2023-04-01T08:05:57.685Z,13.90
2023-04-01T08:11:17.236Z,14.21
2023-04-01T08:17:00.285Z,13.75
2023-04-01T08:22:28.511Z,13.90
2023-04-01T08:28:04.541Z,14.26
2023-04-01T08:33:11.172Z,14.47
2023-04-01T08:38:24.671Z,14.81
2023-04-01T08:44:10.302Z,14.69
2023-04-01T08:49:24.979Z,14.95
2023-04-01T08:54:58.612Z,15.10
2023-04-01T09:00:34.628Z,14.90
2023-04-01T09:06:33.816Z,14.93
2023-04-01T09:11:49.792Z,15.20
2023-04-01T09:17:02.361Z,14.99
2023-04-01T09:22:17.061Z,14.98
2023-04-01T09:27:48.292Z,14.75
2023-04-01T09:33:20.240Z,14.91
2023-04-01T09:38:34.632Z,15.00
2023-04-01T09:43:39.201Z,15.25
2023-04-01T09:49:10.073Z,15.27
2023-04-01T09:54:51.110Z,15.16
2023-04-01T10:00:28.512Z,15.37
2023-04-01T10:06:22.214Z,15.49
2023-04-01T10:11:50.294Z,15.47
2023-04-01T10:17:15.269Z,15.61
2023-04-01T10:22:38.332Z,15.69
2023-04-01T10:28:04.134Z,16.13
2023-04-01T10:34:05.734Z,16.21
2023-04-01T10:40:00.408Z,16.13
2023-04-01T10:46:06.481Z,16.37
2023-04-01T10:52:02.235Z,16.35
2023-04-01T10:58:09.793Z,16.01
2023-04-01T11:04:07.468Z,16.03
2023-04-01T11:09:28.781Z,15.77
2023-04-01T11:15:06.996Z,15.74
2023-04-01T11:20:25.845Z,15.60
2023-04-01T11:26:02.916Z,15.72
2023-04-01T11:32:37.976Z,15.90
2023-04-01T11:38:08.533Z,16.00
2023-04-01T11:43:33.947Z,16.00
2023-04-01T11:49:31.337Z,16.03
2023-04-01T11:55:22.591Z,16.05
2023-04-01T12:00:47.634Z,15.76
2023-04-01T12:06:36.964Z,15.66
2023-04-01T12:12:10.628Z,15.38
2023-04-01T12:18:00.876Z,15.36
2023-04-01T12:23:34.552Z,15.50
2023-04-01T12:29:02.744Z,15.55
2023-04-01T12:34:46.083Z,15.38
2023-04-01T12:40:11.726Z,15.27
2023-04-01T12:45:35.526Z,15.08
2023-04-01T12:51:08.822Z,15.02
2023-04-01T12:56:51.490Z,15.03
2023-04-01T13:02:39.324Z,14.89
2023-04-01T13:08:01.361Z,14.92
2023-04-01T13:13:38.872Z,14.80
2023-04-01T13:19:13.275Z,14.63
2023-04-01T13:24:37.846Z,14.64
2023-04-01T13:29:49.601Z,14.55
2023-04-01T13:41:01.591Z,14.32
2023-04-01T13:46:40.469Z,14.16
2023-04-01T13:52:05.875Z,14.00
2023-04-01T13:57:39.183Z,13.93
2023-04-01T14:03:22.713Z,13.76
2023-04-01T14:08:53.721Z,13.66
2023-04-01T14:14:17.857Z,13.54
2023-04-01T14:19:50.684Z,13.38
2023-04-01T14:25:37.706Z,13.23
2023-04-01T14:31:29.181Z,13.07
2023-04-01T14:36:47.180Z,12.88
2023-04-01T14:42:32.987Z,12.67
2023-04-01T14:48:02.927Z,12.46
2023-04-01T14:53:24.951Z,12.25
2023-04-01T14:59:03.009Z,12.01
2023-04-01T15:04:38.171Z,11.76
2023-04-01T15:10:08.229Z,11.47
2023-04-01T15:15:34.224Z,11.31
2023-04-01T15:20:52.196Z,10.98
2023-04-01T15:26:06.310Z,10.65
2023-04-01T15:31:32.834Z,9.92
2023-04-01T15:36:44.386Z,9.37
2023-04-01T15:42:16.003Z,9.06
2023-04-01T15:47:27.959Z,8.70
2023-04-01T15:53:08.356Z,8.27
2023-04-01T15:58:41.686Z,8.50
2023-04-01T16:04:26.229Z,8.40
2023-04-01T16:10:21.704Z,8.34
2023-04-01T16:16:08.526Z,8.24
2023-04-01T16:21:38.586Z,8.10
2023-04-01T16:27:17.515Z,7.92
2023-04-01T16:32:42.679Z,7.65
2023-04-01T16:38:08.788Z,7.48
2023-04-01T16:43:31.818Z,7.32
2023-04-01T16:49:02.973Z,6.93
2023-04-01T16:54:24.836Z,6.73
2023-04-01T17:00:02.448Z,6.53
2023-04-01T17:05:40.772Z,6.32
2023-04-01T17:10:46.480Z,6.20
2023-04-01T17:16:19.863Z,6.10
2023-04-01T17:22:03.259Z,5.92
2023-04-01T17:27:36.405Z,5.89
2023-04-01T17:33:09.967Z,5.80
2023-04-01T17:38:49.106Z,5.75
2023-04-01T17:44:10.344Z,5.63
2023-04-01T17:49:53.359Z,5.64
2023-04-01T17:55:37.856Z,5.54
2023-04-01T18:01:13.502Z,5.52
2023-04-01T18:07:07.031Z,5.40
2023-04-01T18:12:20.345Z,5.30
2023-04-01T18:17:53.205Z,5.18
2023-04-01T18:28:54.560Z,5.17
2023-04-01T18:34:35.014Z,5.12
2023-04-01T18:39:51.008Z,5.00
2023-04-01T18:45:24.262Z,5.01
2023-04-01T18:51:07.562Z,5.10
2023-04-01T18:56:37.648Z,5.13
2023-04-01T19:02:06.728Z,5.04
2023-04-01T19:07:37.460Z,4.95
2023-04-01T19:13:08.832Z,4.82
2023-04-01T19:18:40.049Z,4.82
2023-04-01T19:23:45.117Z,4.86
2023-04-01T19:29:09.242Z,4.87
2023-04-01T19:34:49.540Z,4.73
2023-04-01T19:40:27.846Z,4.86
2023-04-01T19:46:12.237Z,4.71
2023-04-01T19:51:51.809Z,4.67
2023-04-01T19:57:22.833Z,4.67
2023-04-01T20:03:03.832Z,4.89
2023-04-01T20:08:20.978Z,4.94
2023-04-01T20:13:37.518Z,4.50
2023-04-01T20:19:32.259Z,4.18
2023-04-01T20:24:46.635Z,4.15
2023-04-01T20:30:31.901Z,3.91
2023-04-01T20:35:59.112Z,3.65
2023-04-01T20:41:19.520Z,3.77
2023-04-01T20:46:54.861Z,3.75
2023-04-01T20:52:08.640Z,3.60
2023-04-01T20:57:26.294Z,3.55
2023-04-01T21:03:02.736Z,3.56
2023-04-01T21:08:40.960Z,3.53
2023-04-01T21:14:04.605Z,3.54
2023-04-01T21:19:27.278Z,3.54
2023-04-01T21:25:18.378Z,3.57
2023-04-01T21:30:33.429Z,3.55
2023-04-01T21:36:10.095Z,3.51
2023-04-01T21:41:34.962Z,3.47
2023-04-01T21:47:05.665Z,3.37
2023-04-01T21:52:35.296Z,3.37
2023-04-01T21:58:12.712Z,3.38
2023-04-01T22:03:36.690Z,3.35
2023-04-01T22:08:57.488Z,3.38
2023-04-01T22:14:23.252Z,3.39
2023-04-01T22:19:59.169Z,3.42
2023-04-01T22:25:28.705Z,3.33
2023-04-01T22:31:03.458Z,3.27
2023-04-01T22:36:45.043Z,3.03
2023-04-01T22:42:15.060Z,3.00
2023-04-01T22:47:52.958Z,3.07
2023-04-01T22:53:20.200Z,3.08
2023-04-01T22:58:38.608Z,3.16
2023-04-01T23:03:48.439Z,3.13
2023-04-01T23:09:31.714Z,3.16
2023-04-01T23:15:02.348Z,3.05
2023-04-01T23:20:35.295Z,3.00
2023-04-01T23:26:02.601Z,2.95
2023-04-01T23:31:28.638Z,2.91
2023-04-01T23:36:44.884Z,2.91
2023-04-01T23:41:52.291Z,3.07
2023-04-01T23:46:59.194Z,3.24
2023-04-01T23:52:31.745Z,3.27
2023-04-01T23:57:38.306Z,3.42
